sensor_id;sensor_type;location;lat;lon;timestamp;P1;durP1;ratioP1;P2;durP2;ratioP2
1122;SDS011;548;48.778;9.252;2023-03-23T10:11:10;10.23;;;9.83;;
1122;SDS011;548;48.778;9.252;2023-03-23T10:13:47;11.17;;;10.57;;
1122;SDS011;548;48.778;9.252;2023-03-23T10:16:25;11.00;;;10.50;;
1122;SDS011;548;48.778;9.252;2023-03-23T10:18:56;10.50;;;10.00;;
1122;SDS011;548;48.778;9.252;2023-03-23T10:21:28;11.07;;;10.57;;
1122;SDS011;548;48.778;9.252;2023-03-23T10:23:58;11.10;;;10.70;;
1122;SDS011;548;48.778;9.252;2023-03-23T10:26:30;11.40;;;10.80;;
1122;SDS011;548;48.778;9.252;2023-03-23T10:29:08;10.60;;;10.20;;
1122;SDS011;548;48.778;9.252;2023-03-23T10:31:40;11.03;;;10.53;;
1122;SDS011;548;48.778;9.252;2023-03-23T10:34:10;11.37;;;10.87;;
1122;SDS011;548;48.778;9.252;2023-03-23T10:36:41;11.00;;;10.50;;
1122;SDS011;548;48.778;9.252;2023-03-23T10:39:18;10.93;;;10.53;;
1122;SDS011;548;48.778;9.252;2023-03-23T10:41:48;11.97;;;11.47;;
1122;SDS011;548;48.778;9.252;2023-03-23T10:44:16;11.90;;;11.30;;
1122;SDS011;548;48.778;9.252;2023-03-23T10:46:44;11.17;;;10.77;;
1122;SDS011;548;48.778;9.252;2023-03-23T10:49:19;11.10;;;10.70;;
1122;SDS011;548;48.778;9.252;2023-03-23T10:51:50;10.17;;;9.77;;
1122;SDS011;548;48.778;9.252;2023-03-23T10:54:25;11.03;;;10.57;;
1122;SDS011;548;48.778;9.252;2023-03-23T10:56:55;11.07;;;10.67;;
1122;SDS011;548;48.778;9.252;2023-03-23T10:59:26;10.90;;;10.50;;
1122;SDS011;548;48.778;9.252;2023-03-23T11:01:54;10.73;;;10.33;;
1122;SDS011;548;48.778;9.252;2023-03-23T11:04:24;11.07;;;10.27;;
1122;SDS011;548;48.778;9.252;2023-03-23T11:06:52;11.60;;;11.10;;
1122;SDS011;548;48.778;9.252;2023-03-23T11:09:33;10.83;;;10.43;;
1122;SDS011;548;48.778;9.252;2023-03-23T11:12:03;11.63;;;11.13;;
1122;SDS011;548;48.778;9.252;2023-03-23T11:14:30;10.67;;;10.27;;
1122;SDS011;548;48.778;9.252;2023-03-23T11:17:00;10.87;;;10.47;;
1122;SDS011;548;48.778;9.252;2023-03-23T11:19:28;11.03;;;10.53;;
1122;SDS011;548;48.778;9.252;2023-03-23T11:22:00;10.70;;;10.13;;
1122;SDS011;548;48.778;9.252;2023-03-23T11:24:35;10.80;;;10.40;;
1122;SDS011;548;48.778;9.252;2023-03-23T11:27:07;11.07;;;10.57;;
1122;SDS011;548;48.778;9.252;2023-03-23T11:29:41;11.90;;;11.30;;
1122;SDS011;548;48.778;9.252;2023-03-23T11:32:15;12.23;;;11.13;;
1122;SDS011;548;48.778;9.252;2023-03-23T11:34:42;11.70;;;11.10;;
1122;SDS011;548;48.778;9.252;2023-03-23T11:37:13;10.83;;;10.43;;
1122;SDS011;548;48.778;9.252;2023-03-23T11:39:47;11.90;;;11.30;;
1122;SDS011;548;48.778;9.252;2023-03-23T11:42:20;11.27;;;10.87;;
1122;SDS011;548;48.778;9.252;2023-03-23T11:44:51;11.00;;;10.60;;
1122;SDS011;548;48.778;9.252;2023-03-23T11:47:20;11.57;;;10.93;;
1122;SDS011;548;48.778;9.252;2023-03-23T11:49:55;11.23;;;10.83;;
1122;SDS011;548;48.778;9.252;2023-03-23T11:52:31;11.87;;;11.30;;
1122;SDS011;548;48.778;9.252;2023-03-23T11:55:07;12.10;;;11.60;;
1122;SDS011;548;48.778;9.252;2023-03-23T11:57:39;12.17;;;11.57;;
1122;SDS011;548;48.778;9.252;2023-03-23T12:00:14;11.50;;;10.90;;
1122;SDS011;548;48.778;9.252;2023-03-23T12:02:45;11.13;;;10.63;;
1122;SDS011;548;48.778;9.252;2023-03-23T12:05:29;11.60;;;11.20;;
1122;SDS011;548;48.778;9.252;2023-03-23T12:08:06;11.60;;;11.00;;
1122;SDS011;548;48.778;9.252;2023-03-23T12:10:53;11.70;;;11.20;;
1122;SDS011;548;48.778;9.252;2023-03-23T12:13:33;11.40;;;11.00;;
1122;SDS011;548;48.778;9.252;2023-03-23T12:16:17;11.93;;;11.43;;
1122;SDS011;548;48.778;9.252;2023-03-23T12:18:54;12.83;;;12.17;;
1122;SDS011;548;48.778;9.252;2023-03-23T12:21:28;11.10;;;10.70;;
1122;SDS011;548;48.778;9.252;2023-03-23T12:24:05;10.93;;;10.53;;
1122;SDS011;548;48.778;9.252;2023-03-23T12:26:41;11.37;;;10.97;;
1122;SDS011;548;48.778;9.252;2023-03-23T12:32:19;12.00;;;11.40;;
1122;SDS011;548;48.778;9.252;2023-03-23T12:35:00;11.57;;;11.03;;
1122;SDS011;548;48.778;9.252;2023-03-23T12:37:40;12.40;;;11.53;;
1122;SDS011;548;48.778;9.252;2023-03-23T12:40:18;10.60;;;10.10;;
1122;SDS011;548;48.778;9.252;2023-03-23T12:42:54;10.60;;;10.20;;
1122;SDS011;548;48.778;9.252;2023-03-23T12:45:37;10.93;;;10.50;;
1122;SDS011;548;48.778;9.252;2023-03-23T12:48:12;11.73;;;11.03;;
1122;SDS011;548;48.778;9.252;2023-03-23T12:50:44;11.30;;;10.80;;
1122;SDS011;548;48.778;9.252;2023-03-23T12:53:16;11.17;;;10.70;;
1122;SDS011;548;48.778;9.252;2023-03-23T12:55:49;11.17;;;10.60;;
1122;SDS011;548;48.778;9.252;2023-03-23T12:58:19;11.77;;;11.27;;
1122;SDS011;548;48.778;9.252;2023-03-23T13:00:52;11.30;;;10.90;;
1122;SDS011;548;48.778;9.252;2023-03-23T13:03:23;11.50;;;11.00;;
1122;SDS011;548;48.778;9.252;2023-03-23T13:05:57;11.00;;;10.50;;
1122;SDS011;548;48.778;9.252;2023-03-23T13:08:30;10.87;;;10.47;;
1122;SDS011;548;48.778;9.252;2023-03-23T13:11:01;10.67;;;10.17;;
1122;SDS011;548;48.778;9.252;2023-03-23T13:13:40;11.80;;;11.20;;
1122;SDS011;548;48.778;9.252;2023-03-23T13:16:18;10.40;;;9.90;;
1122;SDS011;548;48.778;9.252;2023-03-23T13:18:55;10.80;;;10.33;;
1122;SDS011;548;48.778;9.252;2023-03-23T13:21:31;11.17;;;10.67;;
1122;SDS011;548;48.778;9.252;2023-03-23T13:24:00;11.20;;;10.80;;
1122;SDS011;548;48.778;9.252;2023-03-23T13:26:30;11.17;;;10.77;;
1122;SDS011;548;48.778;9.252;2023-03-23T13:28:58;10.70;;;10.17;;
1122;SDS011;548;48.778;9.252;2023-03-23T13:31:29;11.03;;;10.43;;
1122;SDS011;548;48.778;9.252;2023-03-23T13:33:58;12.20;;;11.70;;
1122;SDS011;548;48.778;9.252;2023-03-23T13:36:30;11.40;;;11.00;;
1122;SDS011;548;48.778;9.252;2023-03-23T13:39:04;12.37;;;11.70;;
1122;SDS011;548;48.778;9.252;2023-03-23T13:41:33;11.70;;;11.30;;
1122;SDS011;548;48.778;9.252;2023-03-23T13:44:15;11.47;;;10.83;;
1122;SDS011;548;48.778;9.252;2023-03-23T13:46:54;11.87;;;11.47;;
1122;SDS011;548;48.778;9.252;2023-03-23T13:49:23;11.93;;;11.33;;
1122;SDS011;548;48.778;9.252;2023-03-23T13:51:59;12.30;;;11.80;;
1122;SDS011;548;48.778;9.252;2023-03-23T13:54:43;11.87;;;11.37;;
1122;SDS011;548;48.778;9.252;2023-03-23T13:57:23;12.37;;;11.67;;
1122;SDS011;548;48.778;9.252;2023-03-23T14:00:09;11.90;;;11.40;;
1122;SDS011;548;48.778;9.252;2023-03-23T14:02:42;12.87;;;12.27;;
1122;SDS011;548;48.778;9.252;2023-03-23T14:05:23;11.53;;;11.00;;
1122;SDS011;548;48.778;9.252;2023-03-23T14:08:02;12.00;;;11.50;;
1122;SDS011;548;48.778;9.252;2023-03-23T14:10:36;11.73;;;11.27;;
1122;SDS011;548;48.778;9.252;2023-03-23T14:13:06;11.67;;;11.27;;
1122;SDS011;548;48.778;9.252;2023-03-23T14:15:42;11.10;;;10.70;;
1122;SDS011;548;48.778;9.252;2023-03-23T14:18:14;11.53;;;11.03;;
1122;SDS011;548;48.778;9.252;2023-03-23T14:20:42;10.97;;;10.47;;
1122;SDS011;548;48.778;9.252;2023-03-23T14:23:14;11.50;;;11.00;;
1122;SDS011;548;48.778;9.252;2023-03-23T14:25:42;11.23;;;10.83;;
1122;SDS011;548;48.778;9.252;2023-03-23T14:28:16;10.83;;;10.40;;
1122;SDS011;548;48.778;9.252;2023-03-23T14:30:45;10.80;;;10.30;;
1122;SDS011;548;48.778;9.252;2023-03-23T14:33:14;11.47;;;11.07;;
1122;SDS011;548;48.778;9.252;2023-03-23T14:35:42;11.33;;;10.93;;
1122;SDS011;548;48.778;9.252;2023-03-23T14:38:12;11.53;;;11.03;;
1122;SDS011;548;48.778;9.252;2023-03-23T14:40:43;11.57;;;10.80;;
1122;SDS011;548;48.778;9.252;2023-03-23T14:43:10;11.37;;;10.97;;
1122;SDS011;548;48.778;9.252;2023-03-23T14:45:40;10.87;;;10.47;;
1122;SDS011;548;48.778;9.252;2023-03-23T14:48:07;10.90;;;10.50;;
1122;SDS011;548;48.778;9.252;2023-03-23T14:50:41;12.10;;;11.40;;
1122;SDS011;548;48.778;9.252;2023-03-23T14:53:12;11.63;;;11.23;;
1122;SDS011;548;48.778;9.252;2023-03-23T14:55:43;12.47;;;11.80;;
1122;SDS011;548;48.778;9.252;2023-03-23T14:58:12;11.70;;;11.20;;
1122;SDS011;548;48.778;9.252;2023-03-23T15:00:41;10.90;;;10.40;;
1122;SDS011;548;48.778;9.252;2023-03-23T15:03:12;11.13;;;10.53;;
1122;SDS011;548;48.778;9.252;2023-03-23T15:05:43;11.83;;;11.33;;
1122;SDS011;548;48.778;9.252;2023-03-23T15:08:12;12.17;;;11.17;;
1122;SDS011;548;48.778;9.252;2023-03-23T15:10:41;11.00;;;10.50;;
1122;SDS011;548;48.778;9.252;2023-03-23T15:13:10;11.13;;;10.63;;
1122;SDS011;548;48.778;9.252;2023-03-23T15:15:38;11.17;;;10.77;;
1122;SDS011;548;48.778;9.252;2023-03-23T15:18:05;11.80;;;11.20;;
1122;SDS011;548;48.778;9.252;2023-03-23T15:21:08;11.33;;;10.83;;
1122;SDS011;548;48.778;9.252;2023-03-23T15:23:40;10.57;;;10.17;;
1122;SDS011;548;48.778;9.252;2023-03-23T15:26:09;12.20;;;11.47;;
1122;SDS011;548;48.778;9.252;2023-03-23T15:28:48;12.33;;;11.70;;
1122;SDS011;548;48.778;9.252;2023-03-23T15:31:15;11.03;;;10.47;;
1122;SDS011;548;48.778;9.252;2023-03-23T15:33:42;11.60;;;11.10;;
1122;SDS011;548;48.778;9.252;2023-03-23T15:36:14;10.77;;;10.37;;
1122;SDS011;548;48.778;9.252;2023-03-23T15:38:43;11.27;;;10.77;;
1122;SDS011;548;48.778;9.252;2023-03-23T15:41:19;11.77;;;11.27;;
1122;SDS011;548;48.778;9.252;2023-03-23T15:43:49;10.93;;;10.50;;
1122;SDS011;548;48.778;9.252;2023-03-23T15:46:20;11.53;;;10.93;;
1122;SDS011;548;48.778;9.252;2023-03-23T15:48:49;11.93;;;11.53;;
1122;SDS011;548;48.778;9.252;2023-03-23T15:51:20;11.80;;;11.30;;
1122;SDS011;548;48.778;9.252;2023-03-23T15:53:50;11.70;;;11.20;;
1122;SDS011;548;48.778;9.252;2023-03-23T15:56:17;11.07;;;10.67;;
1122;SDS011;548;48.778;9.252;2023-03-23T15:58:44;12.33;;;11.83;;
1122;SDS011;548;48.778;9.252;2023-03-23T16:01:12;11.40;;;10.90;;
1122;SDS011;548;48.778;9.252;2023-03-23T16:03:41;11.50;;;11.00;;
1122;SDS011;548;48.778;9.252;2023-03-23T16:06:12;12.20;;;11.60;;
1122;SDS011;548;48.778;9.252;2023-03-23T16:08:41;11.63;;;11.10;;
1122;SDS011;548;48.778;9.252;2023-03-23T16:11:08;10.80;;;10.40;;
1122;SDS011;548;48.778;9.252;2023-03-23T16:13:36;11.90;;;11.40;;
1122;SDS011;548;48.778;9.252;2023-03-23T16:16:03;10.93;;;10.53;;
1122;SDS011;548;48.778;9.252;2023-03-23T16:18:31;10.50;;;10.10;;
1122;SDS011;548;48.778;9.252;2023-03-23T16:20:57;11.50;;;10.93;;
1122;SDS011;548;48.778;9.252;2023-03-23T16:23:25;11.60;;;11.10;;
1122;SDS011;548;48.778;9.252;2023-03-23T16:25:53;12.50;;;11.70;;
1122;SDS011;548;48.778;9.252;2023-03-23T16:28:20;10.93;;;10.53;;
1122;SDS011;548;48.778;9.252;2023-03-23T16:30:46;12.00;;;11.13;;
1122;SDS011;548;48.778;9.252;2023-03-23T16:33:13;11.20;;;10.70;;
1122;SDS011;548;48.778;9.252;2023-03-23T16:35:40;10.97;;;10.47;;
1122;SDS011;548;48.778;9.252;2023-03-23T16:38:09;10.60;;;10.17;;
1122;SDS011;548;48.778;9.252;2023-03-23T16:40:38;11.23;;;10.60;;
1122;SDS011;548;48.778;9.252;2023-03-23T16:43:07;10.73;;;10.23;;
1122;SDS011;548;48.778;9.252;2023-03-23T16:45:34;10.50;;;10.10;;
1122;SDS011;548;48.778;9.252;2023-03-23T16:48:01;10.80;;;10.40;;
1122;SDS011;548;48.778;9.252;2023-03-23T16:50:29;10.40;;;9.93;;
1122;SDS011;548;48.778;9.252;2023-03-23T16:52:56;10.80;;;10.37;;
1122;SDS011;548;48.778;9.252;2023-03-23T16:55:23;11.03;;;10.63;;
1122;SDS011;548;48.778;9.252;2023-03-23T16:57:51;11.40;;;11.00;;
1122;SDS011;548;48.778;9.252;2023-03-23T17:00:19;11.07;;;10.67;;
1122;SDS011;548;48.778;9.252;2023-03-23T17:02:47;10.17;;;9.77;;
1122;SDS011;548;48.778;9.252;2023-03-23T17:05:16;10.63;;;10.17;;
1122;SDS011;548;48.778;9.252;2023-03-23T17:07:44;11.17;;;10.77;;
1122;SDS011;548;48.778;9.252;2023-03-23T17:10:11;10.67;;;10.27;;
1122;SDS011;548;48.778;9.252;2023-03-23T17:12:39;10.87;;;10.33;;
1122;SDS011;548;48.778;9.252;2023-03-23T17:15:06;11.37;;;10.97;;
1122;SDS011;548;48.778;9.252;2023-03-23T17:17:36;11.60;;;11.20;;
1122;SDS011;548;48.778;9.252;2023-03-23T17:20:03;11.50;;;11.00;;
1122;SDS011;548;48.778;9.252;2023-03-23T17:22:31;10.93;;;10.40;;
1122;SDS011;548;48.778;9.252;2023-03-23T17:24:58;11.70;;;11.20;;
1122;SDS011;548;48.778;9.252;2023-03-23T17:27:26;11.50;;;11.10;;
1122;SDS011;548;48.778;9.252;2023-03-23T17:29:53;12.00;;;11.40;;
1122;SDS011;548;48.778;9.252;2023-03-23T17:32:21;12.17;;;11.60;;
1122;SDS011;548;48.778;9.252;2023-03-23T17:34:49;11.10;;;10.50;;
1122;SDS011;548;48.778;9.252;2023-03-23T17:37:17;11.53;;;11.07;;
1122;SDS011;548;48.778;9.252;2023-03-23T17:39:45;11.33;;;10.93;;
1122;SDS011;548;48.778;9.252;2023-03-23T17:42:11;11.27;;;10.77;;
1122;SDS011;548;48.778;9.252;2023-03-23T17:44:38;11.20;;;10.53;;
1122;SDS011;548;48.778;9.252;2023-03-23T17:47:05;11.27;;;10.77;;
1122;SDS011;548;48.778;9.252;2023-03-23T17:49:32;11.20;;;10.70;;
1122;SDS011;548;48.778;9.252;2023-03-23T17:52:01;11.70;;;10.70;;
1122;SDS011;548;48.778;9.252;2023-03-23T17:54:27;10.57;;;10.17;;
1122;SDS011;548;48.778;9.252;2023-03-23T17:56:55;11.90;;;11.30;;
1122;SDS011;548;48.778;9.252;2023-03-23T18:33:37;11.10;;;10.30;;
1122;SDS011;548;48.778;9.252;2023-03-23T18:36:06;10.23;;;9.83;;
1122;SDS011;548;48.778;9.252;2023-03-23T18:38:34;10.20;;;9.77;;
1122;SDS011;548;48.778;9.252;2023-03-23T18:41:04;10.37;;;9.80;;
1122;SDS011;548;48.778;9.252;2023-03-23T18:43:31;10.33;;;9.83;;
1122;SDS011;548;48.778;9.252;2023-03-23T18:45:58;10.20;;;9.80;;
1122;SDS011;548;48.778;9.252;2023-03-23T18:48:25;11.57;;;10.97;;
1122;SDS011;548;48.778;9.252;2023-03-23T18:50:54;9.80;;;9.40;;
1122;SDS011;548;48.778;9.252;2023-03-23T18:53:22;10.67;;;10.17;;
1122;SDS011;548;48.778;9.252;2023-03-23T18:55:50;10.90;;;10.40;;
1122;SDS011;548;48.778;9.252;2023-03-23T18:58:18;9.93;;;9.43;;
1122;SDS011;548;48.778;9.252;2023-03-23T19:00:45;9.73;;;9.33;;
1122;SDS011;548;48.778;9.252;2023-03-23T19:03:13;10.90;;;10.30;;
1122;SDS011;548;48.778;9.252;2023-03-23T19:05:41;10.23;;;9.80;;
1122;SDS011;548;48.778;9.252;2023-03-23T19:08:09;11.00;;;10.50;;
1122;SDS011;548;48.778;9.252;2023-03-23T19:10:37;10.30;;;9.90;;
1122;SDS011;548;48.778;9.252;2023-03-23T19:13:06;10.17;;;9.77;;
1122;SDS011;548;48.778;9.252;2023-03-23T19:15:36;10.03;;;9.60;;
1122;SDS011;548;48.778;9.252;2023-03-23T19:18:03;10.67;;;10.17;;
1122;SDS011;548;48.778;9.252;2023-03-23T19:20:30;10.43;;;9.77;;
1122;SDS011;548;48.778;9.252;2023-03-23T19:22:57;10.10;;;9.60;;
1122;SDS011;548;48.778;9.252;2023-03-23T19:25:25;10.37;;;9.97;;
1122;SDS011;548;48.778;9.252;2023-03-23T19:27:52;10.50;;;9.90;;
1122;SDS011;548;48.778;9.252;2023-03-23T19:30:18;10.93;;;10.40;;
1122;SDS011;548;48.778;9.252;2023-03-23T19:32:45;10.10;;;9.60;;
1122;SDS011;548;48.778;9.252;2023-03-23T19:35:12;11.33;;;10.77;;
1122;SDS011;548;48.778;9.252;2023-03-23T19:37:39;10.40;;;10.00;;
1122;SDS011;548;48.778;9.252;2023-03-23T19:40:06;10.87;;;10.37;;
1122;SDS011;548;48.778;9.252;2023-03-23T19:42:35;11.20;;;10.70;;
1122;SDS011;548;48.778;9.252;2023-03-23T19:45:02;10.63;;;10.20;;
1122;SDS011;548;48.778;9.252;2023-03-23T19:47:29;10.90;;;10.40;;
1122;SDS011;548;48.778;9.252;2023-03-23T19:49:56;11.13;;;10.73;;
1122;SDS011;548;48.778;9.252;2023-03-23T19:52:23;10.63;;;10.13;;
1122;SDS011;548;48.778;9.252;2023-03-23T19:54:52;10.40;;;10.00;;
1122;SDS011;548;48.778;9.252;2023-03-23T19:57:18;10.93;;;10.33;;
1122;SDS011;548;48.778;9.252;2023-03-23T19:59:47;9.77;;;9.43;;
1122;SDS011;548;48.778;9.252;2023-03-23T20:02:14;11.50;;;10.40;;
1122;SDS011;548;48.778;9.252;2023-03-23T20:04:41;10.93;;;10.43;;
1122;SDS011;548;48.778;9.252;2023-03-23T20:07:08;11.23;;;10.73;;
1122;SDS011;548;48.778;9.252;2023-03-23T20:09:35;11.30;;;10.70;;
1122;SDS011;548;48.778;9.252;2023-03-23T20:12:02;11.07;;;10.53;;
1122;SDS011;548;48.778;9.252;2023-03-23T20:14:29;10.73;;;10.33;;
1122;SDS011;548;48.778;9.252;2023-03-23T20:16:57;10.57;;;10.17;;
1122;SDS011;548;48.778;9.252;2023-03-23T20:19:24;11.30;;;10.70;;
1122;SDS011;548;48.778;9.252;2023-03-23T20:21:51;10.67;;;10.20;;
1122;SDS011;548;48.778;9.252;2023-03-23T20:24:18;11.70;;;11.20;;
1122;SDS011;548;48.778;9.252;2023-03-23T20:26:45;12.77;;;11.97;;
1122;SDS011;548;48.778;9.252;2023-03-23T20:29:11;12.03;;;11.33;;
1122;SDS011;548;48.778;9.252;2023-03-23T20:31:39;11.87;;;11.37;;
1122;SDS011;548;48.778;9.252;2023-03-23T20:34:09;11.30;;;10.70;;
1122;SDS011;548;48.778;9.252;2023-03-23T20:36:38;11.87;;;11.17;;
1122;SDS011;548;48.778;9.252;2023-03-23T20:39:08;11.97;;;11.43;;
1122;SDS011;548;48.778;9.252;2023-03-23T20:41:36;11.67;;;11.17;;
1122;SDS011;548;48.778;9.252;2023-03-23T20:44:04;10.90;;;10.50;;
1122;SDS011;548;48.778;9.252;2023-03-23T20:46:32;11.83;;;11.23;;
1122;SDS011;548;48.778;9.252;2023-03-23T20:49:00;11.00;;;10.50;;
1122;SDS011;548;48.778;9.252;2023-03-23T20:51:30;11.40;;;10.90;;
1122;SDS011;548;48.778;9.252;2023-03-23T20:53:57;11.20;;;10.67;;
1122;SDS011;548;48.778;9.252;2023-03-23T20:56:26;11.20;;;10.70;;
1122;SDS011;548;48.778;9.252;2023-03-23T20:58:53;12.03;;;11.47;;
1122;SDS011;548;48.778;9.252;2023-03-23T21:01:19;11.43;;;10.93;;
1122;SDS011;548;48.778;9.252;2023-03-23T21:03:46;11.43;;;10.80;;
1122;SDS011;548;48.778;9.252;2023-03-23T21:06:16;11.57;;;11.07;;
1122;SDS011;548;48.778;9.252;2023-03-23T21:08:44;12.03;;;11.43;;
1122;SDS011;548;48.778;9.252;2023-03-23T21:11:15;11.30;;;10.90;;
1122;SDS011;548;48.778;9.252;2023-03-23T21:13:43;11.70;;;11.20;;
1122;SDS011;548;48.778;9.252;2023-03-23T21:16:10;12.17;;;11.47;;
1122;SDS011;548;48.778;9.252;2023-03-23T21:18:37;11.67;;;11.17;;
1122;SDS011;548;48.778;9.252;2023-03-23T21:21:04;11.50;;;11.00;;
1122;SDS011;548;48.778;9.252;2023-03-23T21:23:34;12.70;;;11.77;;
1122;SDS011;548;48.778;9.252;2023-03-23T21:26:05;12.03;;;11.43;;
1122;SDS011;548;48.778;9.252;2023-03-23T21:28:33;11.87;;;11.30;;
1122;SDS011;548;48.778;9.252;2023-03-23T21:31:00;11.57;;;11.07;;
1122;SDS011;548;48.778;9.252;2023-03-23T21:33:29;11.63;;;11.13;;
1122;SDS011;548;48.778;9.252;2023-03-23T21:35:56;11.80;;;11.20;;
1122;SDS011;548;48.778;9.252;2023-03-23T21:38:24;12.03;;;11.27;;
1122;SDS011;548;48.778;9.252;2023-03-23T21:40:51;11.70;;;11.20;;
1122;SDS011;548;48.778;9.252;2023-03-23T21:43:20;11.97;;;11.40;;
1122;SDS011;548;48.778;9.252;2023-03-23T21:45:51;11.67;;;11.17;;
1122;SDS011;548;48.778;9.252;2023-03-23T21:48:20;13.20;;;12.27;;
1122;SDS011;548;48.778;9.252;2023-03-23T21:50:47;12.20;;;11.60;;
1122;SDS011;548;48.778;9.252;2023-03-23T21:53:14;13.03;;;12.23;;
1122;SDS011;548;48.778;9.252;2023-03-23T21:55:42;12.23;;;11.57;;
1122;SDS011;548;48.778;9.252;2023-03-23T21:58:11;13.00;;;12.20;;
1122;SDS011;548;48.778;9.252;2023-03-23T22:00:39;12.97;;;12.37;;
1122;SDS011;548;48.778;9.252;2023-03-23T22:03:06;13.13;;;12.03;;
1122;SDS011;548;48.778;9.252;2023-03-23T22:05:33;14.00;;;12.50;;
1122;SDS011;548;48.778;9.252;2023-03-23T22:08:04;13.10;;;12.07;;
1122;SDS011;548;48.778;9.252;2023-03-23T22:10:33;12.73;;;12.00;;
1122;SDS011;548;48.778;9.252;2023-03-23T22:13:00;12.70;;;11.90;;
1122;SDS011;548;48.778;9.252;2023-03-23T22:15:26;12.30;;;11.70;;
1122;SDS011;548;48.778;9.252;2023-03-23T22:17:55;12.73;;;11.60;;
1122;SDS011;548;48.778;9.252;2023-03-23T22:20:21;12.80;;;12.10;;
1122;SDS011;548;48.778;9.252;2023-03-23T22:22:49;12.63;;;12.00;;
1122;SDS011;548;48.778;9.252;2023-03-23T22:25:17;12.10;;;11.57;;
1122;SDS011;548;48.778;9.252;2023-03-23T22:27:44;12.80;;;12.10;;
1122;SDS011;548;48.778;9.252;2023-03-23T22:30:12;12.83;;;12.13;;
1122;SDS011;548;48.778;9.252;2023-03-23T22:32:40;12.93;;;12.27;;
1122;SDS011;548;48.778;9.252;2023-03-23T22:35:08;12.40;;;11.80;;
1122;SDS011;548;48.778;9.252;2023-03-23T22:37:36;13.57;;;12.97;;
1122;SDS011;548;48.778;9.252;2023-03-23T22:40:03;13.87;;;13.07;;
1122;SDS011;548;48.778;9.252;2023-03-23T22:42:32;19.87;;;13.23;;
1122;SDS011;548;48.778;9.252;2023-03-23T22:45:00;13.17;;;12.37;;
1122;SDS011;548;48.778;9.252;2023-03-23T22:47:26;13.90;;;13.10;;
1122;SDS011;548;48.778;9.252;2023-03-23T22:49:53;13.27;;;12.57;;
1122;SDS011;548;48.778;9.252;2023-03-23T22:52:21;13.10;;;12.20;;
1122;SDS011;548;48.778;9.252;2023-03-23T22:54:47;12.60;;;11.90;;
1122;SDS011;548;48.778;9.252;2023-03-23T22:57:14;12.93;;;12.10;;
1122;SDS011;548;48.778;9.252;2023-03-23T22:59:41;13.17;;;12.37;;
1122;SDS011;548;48.778;9.252;2023-03-23T23:02:08;12.20;;;11.40;;
1122;SDS011;548;48.778;9.252;2023-03-23T23:04:34;13.07;;;12.10;;
1122;SDS011;548;48.778;9.252;2023-03-23T23:07:01;13.00;;;12.30;;
1122;SDS011;548;48.778;9.252;2023-03-23T23:09:29;12.43;;;11.83;;
1122;SDS011;548;48.778;9.252;2023-03-23T23:11:56;12.30;;;11.70;;
1122;SDS011;548;48.778;9.252;2023-03-23T23:14:22;12.53;;;11.93;;
1122;SDS011;548;48.778;9.252;2023-03-23T23:16:49;12.13;;;11.43;;
1122;SDS011;548;48.778;9.252;2023-03-23T23:19:16;11.83;;;11.13;;
1122;SDS011;548;48.778;9.252;2023-03-23T23:21:43;11.83;;;11.33;;
1122;SDS011;548;48.778;9.252;2023-03-23T23:24:09;11.70;;;11.10;;
1122;SDS011;548;48.778;9.252;2023-03-23T23:26:37;12.60;;;11.90;;
1122;SDS011;548;48.778;9.252;2023-03-23T23:29:04;12.30;;;11.60;;
1122;SDS011;548;48.778;9.252;2023-03-23T23:31:31;12.43;;;11.87;;
1122;SDS011;548;48.778;9.252;2023-03-23T23:33:59;12.27;;;11.57;;
1122;SDS011;548;48.778;9.252;2023-03-23T23:36:27;13.17;;;12.57;;
1122;SDS011;548;48.778;9.252;2023-03-23T23:38:56;12.33;;;11.60;;
1122;SDS011;548;48.778;9.252;2023-03-23T23:41:23;13.20;;;12.50;;
1122;SDS011;548;48.778;9.252;2023-03-23T23:43:52;12.20;;;11.50;;
1122;SDS011;548;48.778;9.252;2023-03-23T23:46:19;14.07;;;13.03;;
1122;SDS011;548;48.778;9.252;2023-03-23T23:48:46;14.50;;;13.80;;
1122;SDS011;548;48.778;9.252;2023-03-23T23:51:13;16.80;;;16.00;;
1122;SDS011;548;48.778;9.252;2023-03-23T23:53:40;19.20;;;18.07;;
1122;SDS011;548;48.778;9.252;2023-03-23T23:56:08;19.23;;;18.33;;
1122;SDS011;548;48.778;9.252;2023-03-23T23:58:36;19.47;;;18.27;;
